LFPM 230930Z AUTO 05009KT 010V090 CAVOK 00/M06 Q1016

Sorties Club

Notre Club organise chaque années des sorties c'est l'occasion de faire de belles navigations et de profiter d'une agréable sortie entre pilotes

Les Sorties Club de 2017

Sortie Amboise Chambord Chambord

Les Sorties Club de 2018

Prochaines destinations


Sortie Le Touquet
Le Touquet